Time,TemperatureF,DewpointF,PressureIn,WindDirection,WindDirectionDegrees,WindSpeedMPH,WindSpeedGustMPH,Humidity,HourlyPrecipIn,Conditions,Clouds,dailyrainin,SoftwareType,DateUTC
2013-01-03 00:02:00,35.5,29.5,29.47,NE,45,5.6,9.6,79,0.00,,,0.00,WUHU216HW,2013-01-03 09:02:00,
2013-01-03 00:08:00,35.6,29.7,29.46,NNE,23,2.2,9.6,79,0.00,,,0.00,WUHU216HW,2013-01-03 09:08:00,
2013-01-03 00:13:00,35.5,29.5,29.46,NE,45,7.6,7.6,79,0.00,,,0.00,WUHU216HW,2013-01-03 09:13:00,
2013-01-03 00:18:00,35.5,29.3,29.46,NNE,23,3.8,7.6,78,0.00,,,0.00,WUHU216HW,2013-01-03 09:18:00,
2013-01-03 00:23:00,35.3,29.3,29.46,NE,45,4.3,5.6,79,0.00,,,0.00,WUHU216HW,2013-01-03 09:23:00,
2013-01-03 00:28:00,35.3,29.3,29.47,NNE,23,4.5,8.3,79,0.00,,,0.00,WUHU216HW,2013-01-03 09:28:00,
2013-01-03 00:33:00,35.5,29.5,29.46,NNE,23,8.5,8.5,79,0.00,,,0.00,WUHU216HW,2013-01-03 09:33:00,
2013-01-03 00:38:00,35.8,29.9,29.46,SSE,158,6.0,10.1,79,0.00,,,0.00,WUHU216HW,2013-01-03 09:38:00,
2013-01-03 00:43:00,36.2,30.2,29.46,NNE,23,8.5,10.1,79,0.00,,,0.00,WUHU216HW,2013-01-03 09:43:00,
2013-01-03 00:48:00,36.4,30.4,29.46,ENE,68,10.5,10.5,79,0.00,,,0.00,WUHU216HW,2013-01-03 09:48:00,
2013-01-03 00:53:00,36.5,30.3,29.46,ENE,68,5.4,15.0,78,0.00,,,0.00,WUHU216HW,2013-01-03 09:53:00,
2013-01-03 00:58:00,36.7,30.5,29.46,ENE,68,5.4,15.0,78,0.00,,,0.00,WUHU216HW,2013-01-03 09:58:00,
2013-01-03 01:03:00,36.7,30.5,29.46,NE,45,5.1,8.7,78,0.00,,,0.00,WUHU216HW,2013-01-03 10:03:00,
2013-01-03 01:08:00,36.9,30.7,29.46,NNE,23,19.2,19.2,78,0.00,,,0.00,WUHU216HW,2013-01-03 10:08:00,
2013-01-03 01:13:00,37.1,30.9,29.46,ENE,68,6.5,19.2,78,0.00,,,0.00,WUHU216HW,2013-01-03 10:13:00,
2013-01-03 01:18:00,37.1,30.9,29.46,East,90,5.1,15.4,78,0.00,,,0.00,WUHU216HW,2013-01-03 10:18:00,
2013-01-03 01:23:00,36.9,30.7,29.46,NNE,23,8.1,9.6,78,0.00,,,0.00,WUHU216HW,2013-01-03 10:23:00,
2013-01-03 01:28:00,37.1,30.5,29.46,ENE,68,4.3,13.0,77,0.00,,,0.00,WUHU216HW,2013-01-03 10:28:00,
2013-01-03 01:33:00,37.1,30.9,29.46,ENE,68,9.2,13.0,78,0.00,,,0.00,WUHU216HW,2013-01-03 10:33:00,
2013-01-03 01:38:00,37.1,30.9,29.46,ENE,68,6.0,12.8,78,0.00,,,0.00,WUHU216HW,2013-01-03 10:38:00,
2013-01-03 01:43:00,37.1,31.1,29.46,East,90,10.5,13.6,79,0.00,,,0.00,WUHU216HW,2013-01-03 10:43:00,
2013-01-03 01:48:00,36.9,31.0,29.47,ENE,68,11.4,13.6,79,0.00,,,0.00,WUHU216HW,2013-01-03 10:48:00,
2013-01-03 01:53:00,36.9,31.0,29.47,ENE,68,12.1,13.4,79,0.00,,,0.00,WUHU216HW,2013-01-03 10:53:00,
2013-01-03 01:58:00,37.1,31.1,29.46,ENE,68,11.6,13.6,79,0.00,,,0.00,WUHU216HW,2013-01-03 10:58:00,
2013-01-03 02:03:00,37.1,31.1,29.46,NNE,23,7.8,13.6,79,0.00,,,0.00,WUHU216HW,2013-01-03 11:03:00,
2013-01-03 02:08:00,37.1,31.1,29.45,East,90,13.6,13.6,79,0.00,,,0.00,WUHU216HW,2013-01-03 11:08:00,
2013-01-03 02:13:00,37.1,31.1,29.46,East,90,9.8,14.1,79,0.00,,,0.00,WUHU216HW,2013-01-03 11:13:00,
2013-01-03 02:18:00,37.1,30.9,29.46,East,90,10.5,14.1,78,0.00,,,0.00,WUHU216HW,2013-01-03 11:18:00,
2013-01-03 02:23:00,37.3,31.1,29.46,NE,45,8.5,14.1,78,0.00,,,0.00,WUHU216HW,2013-01-03 11:23:00,
2013-01-03 02:28:00,37.3,31.1,29.46,NNE,23,7.6,15.7,78,0.00,,,0.00,WUHU216HW,2013-01-03 11:28:00,
2013-01-03 02:33:00,37.3,31.3,29.46,East,90,13.4,15.7,79,0.00,,,0.00,WUHU216HW,2013-01-03 11:33:00,
2013-01-03 02:38:00,37.1,31.1,29.46,NE,45,7.2,13.6,79,0.00,,,0.00,WUHU216HW,2013-01-03 11:38:00,
2013-01-03 02:43:00,36.9,31.3,29.46,ENE,68,8.7,10.3,80,0.00,,,0.00,WUHU216HW,2013-01-03 11:43:00,
2013-01-03 02:48:00,36.7,31.1,29.46,ESE,113,9.2,13.6,80,0.00,,,0.00,WUHU216HW,2013-01-03 11:48:00,
2013-01-03 02:53:00,36.7,31.1,29.47,East,90,14.3,14.3,80,0.00,,,0.00,WUHU216HW,2013-01-03 11:53:00,
2013-01-03 02:58:00,36.7,31.1,29.47,NE,45,10.7,14.3,80,0.00,,,0.00,WUHU216HW,2013-01-03 11:58:00,
2013-01-03 03:03:00,36.5,31.2,29.47,NE,45,6.0,13.6,81,0.00,,,0.00,WUHU216HW,2013-01-03 12:03:00,
2013-01-03 03:08:00,36.7,31.4,29.47,East,90,14.3,14.3,81,0.00,,,0.00,WUHU216HW,2013-01-03 12:08:00,
2013-01-03 03:13:00,36.7,31.4,29.47,NE,45,9.2,14.3,81,0.00,,,0.00,WUHU216HW,2013-01-03 12:13:00,
2013-01-03 03:18:00,36.7,31.4,29.47,NE,45,6.9,9.8,81,0.00,,,0.00,WUHU216HW,2013-01-03 12:18:00,
2013-01-03 03:23:00,36.5,31.2,29.47,ENE,68,13.2,13.2,81,0.00,,,0.00,WUHU216HW,2013-01-03 12:23:00,
2013-01-03 03:28:00,36.5,31.2,29.47,East,90,9.2,14.1,81,0.00,,,0.00,WUHU216HW,2013-01-03 12:28:00,
2013-01-03 03:33:00,36.5,31.2,29.47,SSE,158,8.5,14.1,81,0.00,,,0.00,WUHU216HW,2013-01-03 12:33:00,
2013-01-03 03:38:00,36.5,31.2,29.46,East,90,5.4,8.5,81,0.00,,,0.00,WUHU216HW,2013-01-03 12:38:00,
2013-01-03 03:43:00,36.5,31.2,29.46,ENE,68,8.9,8.9,81,0.00,,,0.00,WUHU216HW,2013-01-03 12:43:00,
2013-01-03 03:48:00,36.7,31.4,29.46,ENE,68,14.1,14.1,81,0.00,,,0.00,WUHU216HW,2013-01-03 12:48:00,
2013-01-03 03:53:00,36.7,31.1,29.46,North,0,0.0,14.1,80,0.00,,,0.00,WUHU216HW,2013-01-03 12:53:00,
2013-01-03 03:58:00,36.9,31.3,29.46,ESE,113,8.3,14.1,80,0.00,,,0.00,WUHU216HW,2013-01-03 12:58:00,
2013-01-03 04:03:00,36.9,31.3,29.46,East,90,13.4,13.4,80,0.00,,,0.00,WUHU216HW,2013-01-03 13:03:00,
2013-01-03 04:08:00,36.9,31.3,29.46,East,90,8.3,17.0,80,0.00,,,0.00,WUHU216HW,2013-01-03 13:08:00,
2013-01-03 04:13:00,36.9,31.3,29.46,ENE,68,15.7,17.0,80,0.00,,,0.00,WUHU216HW,2013-01-03 13:13:00,
2013-01-03 04:18:00,36.7,31.4,29.46,ESE,113,16.3,17.9,81,0.00,,,0.00,WUHU216HW,2013-01-03 13:18:00,
2013-01-03 04:23:00,36.7,31.4,29.46,ESE,113,19.9,19.9,81,0.01,,,0.00,WUHU216HW,2013-01-03 13:23:00,
2013-01-03 04:28:00,36.7,31.4,29.46,ESE,113,12.1,19.9,81,0.01,,,0.00,WUHU216HW,2013-01-03 13:28:00,
2013-01-03 04:33:00,36.7,31.4,29.46,ENE,68,8.3,12.5,81,0.01,,,0.00,WUHU216HW,2013-01-03 13:33:00,
2013-01-03 04:38:00,36.5,31.2,29.46,NNE,23,7.4,16.3,81,0.01,,,0.00,WUHU216HW,2013-01-03 13:38:00,
2013-01-03 04:43:00,36.5,31.2,29.46,SW,225,15.0,16.3,81,0.01,,,0.00,WUHU216HW,2013-01-03 13:43:00,
2013-01-03 04:48:00,36.5,31.2,29.46,East,90,9.4,15.0,81,0.01,,,0.00,WUHU216HW,2013-01-03 13:48:00,
2013-01-03 04:53:00,36.5,31.2,29.46,East,90,12.3,17.4,81,0.01,,,0.00,WUHU216HW,2013-01-03 13:53:00,
2013-01-03 04:58:00,36.5,31.5,29.46,NNE,23,8.7,17.4,82,0.01,,,0.00,WUHU216HW,2013-01-03 13:58:00,
2013-01-03 05:03:00,36.4,31.3,29.46,NE,45,10.3,15.9,82,0.01,,,0.00,WUHU216HW,2013-01-03 14:03:00,
2013-01-03 05:08:00,36.4,31.3,29.46,ENE,68,14.3,14.3,82,0.01,,,0.00,WUHU216HW,2013-01-03 14:08:00,
2013-01-03 05:13:00,36.4,31.3,29.46,NNE,23,11.0,14.3,82,0.01,,,0.00,WUHU216HW,2013-01-03 14:13:00,
2013-01-03 05:18:00,36.4,31.3,29.45,East,90,7.6,11.0,82,0.00,,,0.00,WUHU216HW,2013-01-03 14:18:00,
2013-01-03 05:23:00,36.4,31.3,29.45,ENE,68,11.4,16.6,82,0.00,,,0.00,WUHU216HW,2013-01-03 14:23:00,
2013-01-03 05:28:00,36.4,31.3,29.46,ESE,113,15.7,16.6,82,0.00,,,0.00,WUHU216HW,2013-01-03 14:28:00,
2013-01-03 05:33:00,36.5,31.2,29.46,ENE,68,8.3,19.2,81,0.00,,,0.00,WUHU216HW,2013-01-03 14:33:00,
2013-01-03 05:38:00,36.5,31.2,29.45,East,90,9.2,19.2,81,0.00,,,0.00,WUHU216HW,2013-01-03 14:38:00,
2013-01-03 05:43:00,36.5,31.2,29.45,ESE,113,13.4,13.4,81,0.00,,,0.00,WUHU216HW,2013-01-03 14:43:00,
2013-01-03 05:48:00,36.4,31.1,29.45,ENE,68,14.3,14.3,81,0.00,,,0.00,WUHU216HW,2013-01-03 14:48:00,
2013-01-03 05:53:00,36.4,31.3,29.45,NE,45,6.9,14.3,82,0.00,,,0.00,WUHU216HW,2013-01-03 14:53:00,
2013-01-03 05:58:00,36.2,31.1,29.45,NE,45,4.0,14.3,82,0.00,,,0.00,WUHU216HW,2013-01-03 14:58:00,
2013-01-03 06:03:00,36.2,31.1,29.45,East,90,10.5,10.5,82,0.00,,,0.00,WUHU216HW,2013-01-03 15:03:00,
2013-01-03 06:08:00,36.5,31.2,29.45,NW,315,11.0,11.0,81,0.00,,,0.00,WUHU216HW,2013-01-03 15:08:00,
2013-01-03 06:13:00,36.5,31.2,29.45,East,90,12.5,12.5,81,0.00,,,0.00,WUHU216HW,2013-01-03 15:13:00,
2013-01-03 06:18:00,36.7,31.4,29.46,ENE,68,12.3,12.5,81,0.00,,,0.00,WUHU216HW,2013-01-03 15:18:00,
2013-01-03 06:23:00,36.5,31.2,29.45,ENE,68,4.9,12.3,81,0.00,,,0.00,WUHU216HW,2013-01-03 15:23:00,
2013-01-03 06:28:00,36.5,31.2,29.45,NE,45,14.8,14.8,81,0.00,,,0.00,WUHU216HW,2013-01-03 15:28:00,
2013-01-03 06:33:00,36.7,31.4,29.46,NNE,23,13.2,15.7,81,0.00,,,0.00,WUHU216HW,2013-01-03 15:33:00,
2013-01-03 06:38:00,36.9,31.3,29.45,ENE,68,3.8,15.7,80,0.00,,,0.00,WUHU216HW,2013-01-03 15:38:00,
2013-01-03 06:43:00,36.9,31.3,29.45,NNE,23,7.2,13.2,80,0.00,,,0.00,WUHU216HW,2013-01-03 15:43:00,
2013-01-03 06:48:00,36.9,31.3,29.45,East,90,4.7,8.7,80,0.00,,,0.00,WUHU216HW,2013-01-03 15:48:00,
2013-01-03 06:53:00,36.9,31.3,29.45,ENE,68,6.9,7.4,80,0.00,,,0.00,WUHU216HW,2013-01-03 15:53:00,
2013-01-03 06:58:00,36.9,31.3,29.45,NNE,23,6.9,7.6,80,0.00,,,0.00,WUHU216HW,2013-01-03 15:58:00,
2013-01-03 07:03:00,36.7,31.1,29.45,NE,45,5.4,6.9,80,0.00,,,0.00,WUHU216HW,2013-01-03 16:03:00,
2013-01-03 07:08:00,36.7,31.1,29.45,East,90,2.9,5.6,80,0.00,,,0.00,WUHU216HW,2013-01-03 16:08:00,
2013-01-03 07:13:00,36.5,31.0,29.45,NE,45,8.3,8.3,80,0.00,,,0.00,WUHU216HW,2013-01-03 16:13:00,
2013-01-03 07:18:00,36.5,31.2,29.45,NE,45,6.3,8.3,81,0.00,,,0.00,WUHU216HW,2013-01-03 16:18:00,
2013-01-03 07:23:00,36.5,31.2,29.45,NE,45,7.8,7.8,81,0.00,,,0.00,WUHU216HW,2013-01-03 16:23:00,
2013-01-03 07:28:00,36.5,31.2,29.45,ENE,68,4.7,7.8,81,0.00,,,0.00,WUHU216HW,2013-01-03 16:28:00,
2013-01-03 07:33:00,36.5,31.2,29.45,NNE,23,6.7,6.9,81,0.00,,,0.00,WUHU216HW,2013-01-03 16:33:00,
2013-01-03 07:38:00,36.4,31.1,29.44,ENE,68,3.6,6.9,81,0.00,,,0.00,WUHU216HW,2013-01-03 16:38:00,
2013-01-03 07:43:00,36.4,31.1,29.44,SE,135,4.9,8.7,81,0.00,,,0.00,WUHU216HW,2013-01-03 16:43:00,
2013-01-03 07:48:00,36.4,31.1,29.44,ENE,68,5.4,9.4,81,0.00,,,0.00,WUHU216HW,2013-01-03 16:48:00,
2013-01-03 07:53:00,36.4,31.3,29.44,East,90,4.7,11.0,82,0.00,,,0.00,WUHU216HW,2013-01-03 16:53:00,
2013-01-03 07:58:00,36.4,31.3,29.44,NE,45,4.0,11.0,82,0.00,,,0.00,WUHU216HW,2013-01-03 16:58:00,
2013-01-03 08:03:00,36.2,31.1,29.44,NE,45,4.0,6.0,82,0.00,,,0.00,WUHU216HW,2013-01-03 17:03:00,
2013-01-03 08:08:00,36.0,31.0,29.44,ENE,68,5.4,6.0,82,0.00,,,0.00,WUHU216HW,2013-01-03 17:08:00,
2013-01-03 08:13:00,35.8,30.8,29.44,ENE,68,2.7,9.6,82,0.00,,,0.00,WUHU216HW,2013-01-03 17:13:00,
2013-01-03 08:18:00,35.6,30.6,29.44,North,0,5.4,9.6,82,0.00,,,0.00,WUHU216HW,2013-01-03 17:18:00,
2013-01-03 08:23:00,35.6,30.6,29.44,NE,45,4.3,7.6,82,0.00,,,0.00,WUHU216HW,2013-01-03 17:23:00,
2013-01-03 08:28:00,35.6,31.0,29.44,NE,45,4.5,5.4,83,0.00,,,0.00,WUHU216HW,2013-01-03 17:28:00,
2013-01-03 08:33:00,35.6,31.0,29.44,NE,45,2.2,4.9,83,0.00,,,0.00,WUHU216HW,2013-01-03 17:33:00,
2013-01-03 08:38:00,35.5,30.8,29.44,ESE,113,2.9,4.3,83,0.00,,,0.00,WUHU216HW,2013-01-03 17:38:00,
2013-01-03 08:43:00,35.3,30.9,29.44,ENE,68,2.9,6.5,84,0.00,,,0.00,WUHU216HW,2013-01-03 17:43:00,
2013-01-03 08:48:00,35.5,31.1,29.44,North,0,6.0,6.5,84,0.00,,,0.00,WUHU216HW,2013-01-03 17:48:00,
2013-01-03 08:53:00,35.5,31.1,29.44,ENE,68,5.4,6.0,84,0.00,,,0.00,WUHU216HW,2013-01-03 17:53:00,
2013-01-03 08:58:00,35.3,30.9,29.44,NNE,23,4.5,5.4,84,0.00,,,0.00,WUHU216HW,2013-01-03 17:58:00,
2013-01-03 09:03:00,35.5,31.1,29.45,NE,45,4.3,4.9,84,0.00,,,0.00,WUHU216HW,2013-01-03 18:03:00,
2013-01-03 09:08:00,35.5,31.1,29.45,NNW,338,3.4,6.3,84,0.00,,,0.00,WUHU216HW,2013-01-03 18:08:00,
2013-01-03 09:13:00,35.5,31.1,29.45,NE,45,3.8,6.3,84,0.00,,,0.00,WUHU216HW,2013-01-03 18:13:00,
2013-01-03 09:18:00,35.5,31.1,29.45,ENE,68,4.3,5.8,84,0.00,,,0.00,WUHU216HW,2013-01-03 18:18:00,
2013-01-03 09:23:00,35.3,30.9,29.45,NNE,23,3.1,4.9,84,0.00,,,0.00,WUHU216HW,2013-01-03 18:23:00,
2013-01-03 09:28:00,35.5,31.3,29.45,North,0,4.7,5.4,85,0.00,,,0.00,WUHU216HW,2013-01-03 18:28:00,
2013-01-03 09:33:00,35.3,31.1,29.45,East,90,4.7,5.4,85,0.00,,,0.00,WUHU216HW,2013-01-03 18:33:00,
2013-01-03 09:38:00,35.5,31.3,29.46,ENE,68,3.8,5.4,85,0.00,,,0.00,WUHU216HW,2013-01-03 18:38:00,
2013-01-03 09:43:00,35.5,31.1,29.46,NE,45,3.4,5.4,84,0.00,,,0.00,WUHU216HW,2013-01-03 18:43:00,
2013-01-03 09:48:00,35.5,31.1,29.46,ENE,68,3.1,4.3,84,0.00,,,0.00,WUHU216HW,2013-01-03 18:48:00,
2013-01-03 09:53:00,35.6,31.2,29.46,South,180,4.7,4.9,84,0.00,,,0.00,WUHU216HW,2013-01-03 18:53:00,
2013-01-03 09:58:00,35.5,31.1,29.46,ENE,68,2.7,6.9,84,0.00,,,0.00,WUHU216HW,2013-01-03 18:58:00,
2013-01-03 10:03:00,35.5,31.3,29.46,ENE,68,4.9,8.7,85,0.00,,,0.00,WUHU216HW,2013-01-03 19:03:00,
2013-01-03 10:08:00,35.5,31.3,29.46,ENE,68,1.6,8.7,85,0.00,,,0.00,WUHU216HW,2013-01-03 19:08:00,
2013-01-03 10:13:00,35.5,31.3,29.46,East,90,5.6,6.0,85,0.00,,,0.00,WUHU216HW,2013-01-03 19:13:00,
2013-01-03 10:18:00,35.5,31.3,29.46,NE,45,3.6,5.6,85,0.00,,,0.00,WUHU216HW,2013-01-03 19:18:00,
2013-01-03 10:51:00,35.3,31.4,29.47,ESE,113,0.7,4.0,86,0.00,,,0.00,WUHU216HW,2013-01-03 19:51:00,
2013-01-03 10:56:00,35.3,31.4,29.48,North,0,5.1,5.1,86,0.00,,,0.00,WUHU216HW,2013-01-03 19:56:00,
2013-01-03 11:01:00,35.3,31.4,29.48,North,0,2.5,5.1,86,0.00,,,0.00,WUHU216HW,2013-01-03 20:01:00,
2013-01-03 11:06:00,35.3,31.4,29.48,NNE,23,2.2,3.1,86,0.00,,,0.00,WUHU216HW,2013-01-03 20:06:00,
2013-01-03 11:11:00,35.3,31.4,29.48,NNE,23,3.4,3.4,86,0.00,,,0.00,WUHU216HW,2013-01-03 20:11:00,
2013-01-03 11:16:00,35.5,31.6,29.48,East,90,2.9,3.4,86,0.00,,,0.00,WUHU216HW,2013-01-03 20:16:00,
2013-01-03 11:21:00,35.5,31.6,29.48,NE,45,2.9,3.4,86,0.00,,,0.00,WUHU216HW,2013-01-03 20:21:00,
2013-01-03 11:26:00,35.5,31.6,29.49,East,90,0.9,3.4,86,0.00,,,0.00,WUHU216HW,2013-01-03 20:26:00,
2013-01-03 11:31:00,35.5,31.6,29.48,NE,45,4.0,4.0,86,0.00,,,0.00,WUHU216HW,2013-01-03 20:31:00,
2013-01-03 11:36:00,35.5,31.6,29.48,East,90,1.1,4.3,86,0.00,,,0.00,WUHU216HW,2013-01-03 20:36:00,
2013-01-03 11:41:00,35.5,31.6,29.49,East,90,2.9,4.3,86,0.00,,,0.00,WUHU216HW,2013-01-03 20:41:00,
2013-01-03 11:46:00,35.5,31.6,29.49,NE,45,2.2,3.4,86,0.00,,,0.00,WUHU216HW,2013-01-03 20:46:00,
2013-01-03 11:51:00,35.5,31.9,29.49,ENE,68,1.6,5.6,87,0.00,,,0.00,WUHU216HW,2013-01-03 20:51:00,
2013-01-03 11:56:00,35.5,31.9,29.49,ESE,113,1.1,5.6,87,0.00,,,0.00,WUHU216HW,2013-01-03 20:56:00,
2013-01-03 12:01:00,35.3,31.7,29.49,NE,45,1.6,4.9,87,0.00,,,0.00,WUHU216HW,2013-01-03 21:01:00,
2013-01-03 12:06:00,35.3,31.7,29.49,East,90,5.6,6.9,87,0.00,,,0.00,WUHU216HW,2013-01-03 21:06:00,
2013-01-03 12:11:00,35.5,31.9,29.49,East,90,3.6,6.9,87,0.00,,,0.00,WUHU216HW,2013-01-03 21:11:00,
2013-01-03 12:16:00,35.5,31.9,29.49,ENE,68,1.1,4.0,87,0.00,,,0.00,WUHU216HW,2013-01-03 21:16:00,
2013-01-03 12:21:00,35.6,32.0,29.49,ENE,68,3.6,4.0,87,0.00,,,0.00,WUHU216HW,2013-01-03 21:21:00,
2013-01-03 12:26:00,35.5,31.9,29.49,NE,45,4.7,4.7,87,0.00,,,0.00,WUHU216HW,2013-01-03 21:26:00,
2013-01-03 12:31:00,35.6,32.0,29.49,SSE,158,2.2,4.7,87,0.00,,,0.00,WUHU216HW,2013-01-03 21:31:00,
2013-01-03 12:36:00,35.5,31.9,29.49,ENE,68,4.0,4.5,87,0.00,,,0.00,WUHU216HW,2013-01-03 21:36:00,
2013-01-03 12:41:00,35.5,31.9,29.49,SE,135,3.8,4.5,87,0.00,,,0.00,WUHU216HW,2013-01-03 21:41:00,
2013-01-03 12:46:00,35.5,31.9,29.49,ESE,113,3.4,4.0,87,0.00,,,0.00,WUHU216HW,2013-01-03 21:46:00,
2013-01-03 12:51:00,35.5,32.2,29.49,ENE,68,2.2,4.5,88,0.00,,,0.00,WUHU216HW,2013-01-03 21:51:00,
2013-01-03 12:56:00,35.5,32.2,29.49,East,90,1.1,4.5,88,0.00,,,0.00,WUHU216HW,2013-01-03 21:56:00,
2013-01-03 13:01:00,35.5,32.2,29.49,East,90,2.5,4.5,88,0.00,,,0.00,WUHU216HW,2013-01-03 22:01:00,
2013-01-03 13:06:00,35.5,32.2,29.49,NNE,23,3.6,5.4,88,0.00,,,0.00,WUHU216HW,2013-01-03 22:06:00,
2013-01-03 13:11:00,35.5,32.2,29.49,ESE,113,3.4,5.8,88,0.00,,,0.00,WUHU216HW,2013-01-03 22:11:00,
2013-01-03 13:16:00,35.5,32.2,29.49,East,90,2.0,5.8,88,0.00,,,0.00,WUHU216HW,2013-01-03 22:16:00,
2013-01-03 13:21:00,35.5,32.2,29.49,ESE,113,3.6,5.1,88,0.00,,,0.00,WUHU216HW,2013-01-03 22:21:00,
2013-01-03 13:26:00,35.5,32.2,29.49,ESE,113,2.5,4.9,88,0.00,,,0.00,WUHU216HW,2013-01-03 22:26:00,
2013-01-03 13:31:00,35.5,32.2,29.49,East,90,4.7,4.9,88,0.00,,,0.00,WUHU216HW,2013-01-03 22:31:00,
2013-01-03 13:36:00,35.5,32.2,29.49,ENE,68,2.7,4.7,88,0.00,,,0.00,WUHU216HW,2013-01-03 22:36:00,
2013-01-03 13:41:00,35.5,32.2,29.49,East,90,5.4,5.4,88,0.00,,,0.00,WUHU216HW,2013-01-03 22:41:00,
2013-01-03 13:46:00,35.5,32.2,29.49,NE,45,3.6,5.4,88,0.00,,,0.00,WUHU216HW,2013-01-03 22:46:00,
2013-01-03 13:51:00,35.5,32.2,29.49,NE,45,4.5,5.4,88,0.00,,,0.00,WUHU216HW,2013-01-03 22:51:00,
2013-01-03 13:56:00,35.5,32.2,29.49,ENE,68,4.0,5.4,88,0.00,,,0.00,WUHU216HW,2013-01-03 22:56:00,
2013-01-03 14:01:00,35.5,32.2,29.49,East,90,3.1,5.6,88,0.00,,,0.00,WUHU216HW,2013-01-03 23:01:00,
2013-01-03 14:06:00,35.3,32.1,29.49,East,90,4.9,5.6,88,0.00,,,0.00,WUHU216HW,2013-01-03 23:06:00,
2013-01-03 14:11:00,35.3,32.1,29.49,North,0,2.2,4.9,88,0.00,,,0.00,WUHU216HW,2013-01-03 23:11:00,
2013-01-03 14:16:00,35.3,32.1,29.49,ESE,113,6.3,6.9,88,0.00,,,0.00,WUHU216HW,2013-01-03 23:16:00,
2013-01-03 14:21:00,35.3,32.1,29.49,NNE,23,4.0,6.9,88,0.00,,,0.00,WUHU216HW,2013-01-03 23:21:00,
2013-01-03 14:26:00,35.3,32.3,29.49,SE,135,4.5,6.3,89,0.00,,,0.00,WUHU216HW,2013-01-03 23:26:00,
2013-01-03 14:31:00,35.3,32.1,29.49,ESE,113,5.1,6.0,88,0.00,,,0.00,WUHU216HW,2013-01-03 23:31:00,
2013-01-03 14:36:00,35.3,32.1,29.49,ENE,68,6.0,6.0,88,0.00,,,0.00,WUHU216HW,2013-01-03 23:36:00,
2013-01-03 14:41:00,35.3,32.1,29.49,NE,45,4.0,6.0,88,0.00,,,0.00,WUHU216HW,2013-01-03 23:41:00,
2013-01-03 14:46:00,35.3,32.3,29.49,ENE,68,6.5,6.5,89,0.00,,,0.00,WUHU216HW,2013-01-03 23:46:00,
2013-01-03 14:51:00,35.3,32.3,29.48,North,0,0.0,6.5,89,0.00,,,0.00,WUHU216HW,2013-01-03 23:51:00,
2013-01-03 14:56:00,35.3,32.3,29.48,ENE,68,4.9,7.4,89,0.00,,,0.00,WUHU216HW,2013-01-03 23:56:00,
2013-01-03 15:01:00,35.3,32.3,29.49,ESE,113,8.3,8.3,89,0.00,,,0.00,WUHU216HW,2013-01-04 00:01:00,
2013-01-03 15:06:00,35.3,32.3,29.49,East,90,4.5,8.3,89,0.00,,,0.00,WUHU216HW,2013-01-04 00:06:00,
2013-01-03 15:11:00,35.3,32.1,29.49,ESE,113,3.8,5.8,88,0.00,,,0.00,WUHU216HW,2013-01-04 00:11:00,
2013-01-03 15:16:00,35.3,32.1,29.49,NNE,23,4.3,5.8,88,0.00,,,0.00,WUHU216HW,2013-01-04 00:16:00,
2013-01-03 15:21:00,35.3,32.1,29.49,East,90,6.5,6.5,88,0.00,,,0.00,WUHU216HW,2013-01-04 00:21:00,
2013-01-03 15:26:00,35.3,32.1,29.49,ENE,68,6.3,6.5,88,0.00,,,0.00,WUHU216HW,2013-01-04 00:26:00,
2013-01-03 15:31:00,35.3,32.1,29.49,ENE,68,3.6,6.5,88,0.00,,,0.00,WUHU216HW,2013-01-04 00:31:00,
2013-01-03 15:36:00,35.3,32.1,29.49,North,0,0.0,6.3,88,0.00,,,0.00,WUHU216HW,2013-01-04 00:36:00,
2013-01-03 15:41:00,35.3,32.1,29.49,ESE,113,2.5,6.3,88,0.00,,,0.00,WUHU216HW,2013-01-04 00:41:00,
2013-01-03 15:46:00,35.3,32.1,29.49,East,90,5.4,5.4,88,0.00,,,0.00,WUHU216HW,2013-01-04 00:46:00,
2013-01-03 15:52:00,35.3,32.1,29.49,ENE,68,7.6,7.6,88,0.00,,,0.00,WUHU216HW,2013-01-04 00:52:00,
2013-01-03 15:57:00,35.3,32.1,29.49,ESE,113,6.3,7.6,88,0.00,,,0.00,WUHU216HW,2013-01-04 00:57:00,
2013-01-03 16:02:00,35.3,32.1,29.49,ENE,68,6.0,6.3,88,0.00,,,0.00,WUHU216HW,2013-01-04 01:02:00,
2013-01-03 16:07:00,35.1,31.9,29.49,NE,45,4.7,6.0,88,0.00,,,0.00,WUHU216HW,2013-01-04 01:07:00,
2013-01-03 16:12:00,35.1,31.9,29.49,ESE,113,5.4,7.6,88,0.00,,,0.00,WUHU216HW,2013-01-04 01:12:00,
2013-01-03 16:17:00,35.3,32.1,29.49,NE,45,3.1,8.9,88,0.00,,,0.00,WUHU216HW,2013-01-04 01:17:00,
2013-01-03 16:22:00,35.1,31.9,29.49,NE,45,2.5,8.9,88,0.00,,,0.00,WUHU216HW,2013-01-04 01:22:00,
2013-01-03 16:27:00,35.1,31.9,29.49,ENE,68,5.4,6.3,88,0.00,,,0.00,WUHU216HW,2013-01-04 01:27:00,
2013-01-03 16:32:00,34.9,31.7,29.49,North,0,4.0,6.3,88,0.00,,,0.00,WUHU216HW,2013-01-04 01:32:00,
2013-01-03 16:37:00,34.9,31.7,29.49,East,90,4.9,4.9,88,0.00,,,0.00,WUHU216HW,2013-01-04 01:37:00,
2013-01-03 16:42:00,34.9,31.7,29.49,NE,45,4.9,7.2,88,0.00,,,0.00,WUHU216HW,2013-01-04 01:42:00,
2013-01-03 16:47:00,34.9,31.7,29.49,ESE,113,5.4,7.2,88,0.00,,,0.00,WUHU216HW,2013-01-04 01:47:00,
2013-01-03 16:52:00,34.9,31.7,29.49,ENE,68,3.4,6.3,88,0.00,,,0.00,WUHU216HW,2013-01-04 01:52:00,
2013-01-03 16:57:00,34.9,31.7,29.49,ENE,68,4.0,6.3,88,0.00,,,0.00,WUHU216HW,2013-01-04 01:57:00,
2013-01-03 17:02:00,34.9,31.7,29.49,ENE,68,4.3,5.8,88,0.00,,,0.00,WUHU216HW,2013-01-04 02:02:00,
2013-01-03 17:07:00,35.1,31.9,29.49,NNE,23,3.4,5.8,88,0.00,,,0.00,WUHU216HW,2013-01-04 02:07:00,
2013-01-03 17:12:00,34.9,31.7,29.49,ENE,68,3.4,4.3,88,0.00,,,0.00,WUHU216HW,2013-01-04 02:12:00,
2013-01-03 17:17:00,34.9,31.7,29.49,NE,45,3.1,4.5,88,0.00,,,0.00,WUHU216HW,2013-01-04 02:17:00,
2013-01-03 17:22:00,34.7,31.5,29.49,NNE,23,1.8,4.5,88,0.00,,,0.00,WUHU216HW,2013-01-04 02:22:00,
2013-01-03 17:27:00,34.7,31.5,29.49,North,0,2.5,3.4,88,0.00,,,0.00,WUHU216HW,2013-01-04 02:27:00,
2013-01-03 17:32:00,34.7,31.5,29.49,NNE,23,1.8,3.4,88,0.00,,,0.00,WUHU216HW,2013-01-04 02:32:00,
2013-01-03 17:37:00,34.6,31.3,29.49,NNE,23,2.0,3.4,88,0.00,,,0.00,WUHU216HW,2013-01-04 02:37:00,
2013-01-03 17:42:00,34.6,31.3,29.49,NNE,23,1.1,2.7,88,0.00,,,0.00,WUHU216HW,2013-01-04 02:42:00,
2013-01-03 17:47:00,34.4,31.2,29.49,North,0,0.2,2.7,88,0.00,,,0.00,WUHU216HW,2013-01-04 02:47:00,
2013-01-03 17:52:00,34.2,31.0,29.49,North,0,1.1,2.7,88,0.00,,,0.00,WUHU216HW,2013-01-04 02:52:00,
2013-01-03 17:57:00,34.2,31.0,29.49,North,0,1.3,2.7,88,0.00,,,0.00,WUHU216HW,2013-01-04 02:57:00,
2013-01-03 18:02:00,34.2,31.0,29.49,North,0,1.8,1.8,88,0.00,,,0.00,WUHU216HW,2013-01-04 03:02:00,
2013-01-03 18:07:00,34.0,30.8,29.50,North,0,2.2,3.6,88,0.00,,,0.00,WUHU216HW,2013-01-04 03:07:00,
2013-01-03 18:12:00,34.0,30.8,29.49,ENE,68,3.6,4.7,88,0.00,,,0.00,WUHU216HW,2013-01-04 03:12:00,
2013-01-03 18:17:00,33.8,30.6,29.49,ENE,68,3.4,4.7,88,0.00,,,0.00,WUHU216HW,2013-01-04 03:17:00,
2013-01-03 18:22:00,33.8,30.6,29.49,NNE,23,3.4,3.8,88,0.00,,,0.00,WUHU216HW,2013-01-04 03:22:00,
2013-01-03 18:27:00,33.8,30.6,29.49,NE,45,2.2,3.4,88,0.00,,,0.00,WUHU216HW,2013-01-04 03:27:00,
2013-01-03 18:32:00,33.7,30.4,29.49,NE,45,3.4,3.4,88,0.00,,,0.00,WUHU216HW,2013-01-04 03:32:00,
2013-01-03 18:37:00,33.5,30.2,29.49,NE,45,1.8,3.4,88,0.00,,,0.00,WUHU216HW,2013-01-04 03:37:00,
2013-01-03 18:42:00,33.5,30.2,29.50,ENE,68,2.5,3.8,88,0.00,,,0.00,WUHU216HW,2013-01-04 03:42:00,
2013-01-03 18:47:00,33.1,29.9,29.49,ENE,68,3.4,3.8,88,0.00,,,0.00,WUHU216HW,2013-01-04 03:47:00,
2013-01-03 18:52:00,32.9,29.8,29.50,East,90,1.1,3.6,88,0.00,,,0.00,WUHU216HW,2013-01-04 03:52:00,
2013-01-03 18:57:00,32.8,29.6,29.49,North,0,0.0,2.5,88,0.00,,,0.00,WUHU216HW,2013-01-04 03:57:00,
2013-01-03 19:02:00,32.6,29.4,29.50,NE,45,2.7,2.9,88,0.00,,,0.00,WUHU216HW,2013-01-04 04:02:00,
2013-01-03 19:07:00,32.6,29.4,29.50,NNE,23,4.3,4.3,88,0.00,,,0.00,WUHU216HW,2013-01-04 04:07:00,
2013-01-03 19:12:00,32.6,29.4,29.50,NE,45,2.5,4.3,88,0.00,,,0.00,WUHU216HW,2013-01-04 04:12:00,
2013-01-03 19:17:00,32.6,29.4,29.50,NE,45,2.5,4.0,88,0.00,,,0.00,WUHU216HW,2013-01-04 04:17:00,
2013-01-03 19:22:00,32.6,29.4,29.50,NNE,23,1.8,4.0,88,0.00,,,0.00,WUHU216HW,2013-01-04 04:22:00,
2013-01-03 19:27:00,32.6,29.7,29.50,NE,45,3.4,4.7,89,0.00,,,0.00,WUHU216HW,2013-01-04 04:27:00,
2013-01-03 19:32:00,32.8,29.9,29.50,NNE,23,3.4,4.7,89,0.00,,,0.00,WUHU216HW,2013-01-04 04:32:00,
2013-01-03 19:37:00,32.8,29.9,29.50,ENE,68,2.9,5.1,89,0.00,,,0.00,WUHU216HW,2013-01-04 04:37:00,
2013-01-03 19:42:00,32.9,30.1,29.50,NE,45,3.6,5.1,89,0.00,,,0.00,WUHU216HW,2013-01-04 04:42:00,
2013-01-03 19:47:00,33.1,30.3,29.50,NNE,23,3.6,5.1,89,0.00,,,0.00,WUHU216HW,2013-01-04 04:47:00,
2013-01-03 19:52:00,33.5,30.5,29.49,NE,45,4.5,6.3,89,0.00,,,0.00,WUHU216HW,2013-01-04 04:52:00,
2013-01-03 19:57:00,33.7,30.7,29.49,ENE,68,4.7,7.2,89,0.00,,,0.00,WUHU216HW,2013-01-04 04:57:00,
2013-01-03 20:00:00,33.7,30.7,29.49,ESE,113,4.5,7.2,89,0.00,,,0.00,WUHU216HW,2013-01-04 05:00:00,
2013-01-03 20:02:00,33.8,30.6,29.49,ENE,68,5.4,7.2,88,0.00,,,0.00,WUHU216HW,2013-01-04 05:02:00,
2013-01-03 20:03:00,33.8,30.6,29.49,East,90,4.3,7.2,88,0.00,,,0.00,WUHU216HW,2013-01-04 05:03:00,
2013-01-03 20:08:00,34.0,30.8,29.49,ENE,68,4.9,6.9,88,0.00,,,0.00,WUHU216HW,2013-01-04 05:08:00,
2013-01-03 20:13:00,34.2,31.0,29.49,ENE,68,4.9,6.7,88,0.00,,,0.00,WUHU216HW,2013-01-04 05:13:00,
2013-01-03 20:18:00,34.2,31.0,29.49,ENE,68,4.5,7.6,88,0.00,,,0.00,WUHU216HW,2013-01-04 05:18:00,
2013-01-03 20:23:00,34.2,30.6,29.49,East,90,6.5,7.6,87,0.00,,,0.00,WUHU216HW,2013-01-04 05:23:00,
2013-01-03 20:28:00,34.4,30.8,29.50,NE,45,4.7,7.6,87,0.00,,,0.00,WUHU216HW,2013-01-04 05:28:00,
2013-01-03 20:33:00,34.4,30.8,29.50,ENE,68,3.4,6.7,87,0.00,,,0.00,WUHU216HW,2013-01-04 05:33:00,
2013-01-03 20:38:00,34.4,30.8,29.50,ENE,68,2.9,5.4,87,0.00,,,0.00,WUHU216HW,2013-01-04 05:38:00,
2013-01-03 20:43:00,34.2,30.6,29.50,NE,45,2.7,6.5,87,0.00,,,0.00,WUHU216HW,2013-01-04 05:43:00,
2013-01-03 20:48:00,34.2,30.6,29.50,NE,45,4.5,6.5,87,0.00,,,0.00,WUHU216HW,2013-01-04 05:48:00,
2013-01-03 20:53:00,34.4,30.8,29.50,NNE,23,5.4,5.8,87,0.00,,,0.00,WUHU216HW,2013-01-04 05:53:00,
2013-01-03 20:58:00,34.4,30.8,29.50,SSE,158,3.4,6.3,87,0.00,,,0.00,WUHU216HW,2013-01-04 05:58:00,
2013-01-03 21:03:00,34.4,30.5,29.50,East,90,4.0,6.3,86,0.00,,,0.00,WUHU216HW,2013-01-04 06:03:00,
2013-01-03 21:08:00,34.4,30.5,29.50,NNE,23,1.8,4.0,86,0.00,,,0.00,WUHU216HW,2013-01-04 06:08:00,
2013-01-03 21:13:00,34.2,30.3,29.50,NE,45,1.8,4.3,86,0.00,,,0.00,WUHU216HW,2013-01-04 06:13:00,
2013-01-03 21:18:00,34.2,30.3,29.50,NE,45,2.0,4.3,86,0.00,,,0.00,WUHU216HW,2013-01-04 06:18:00,
2013-01-03 21:23:00,34.2,30.6,29.50,ENE,68,7.2,7.2,87,0.00,,,0.00,WUHU216HW,2013-01-04 06:23:00,
2013-01-03 21:28:00,34.2,30.6,29.50,NE,45,3.1,7.2,87,0.00,,,0.00,WUHU216HW,2013-01-04 06:28:00,
2013-01-03 21:33:00,34.2,30.6,29.50,East,90,3.4,7.2,87,0.00,,,0.00,WUHU216HW,2013-01-04 06:33:00,
2013-01-03 21:38:00,34.2,30.6,29.50,ENE,68,4.7,5.6,87,0.00,,,0.00,WUHU216HW,2013-01-04 06:38:00,
2013-01-03 21:43:00,34.2,30.6,29.51,ENE,68,3.1,4.7,87,0.00,,,0.00,WUHU216HW,2013-01-04 06:43:00,
2013-01-03 21:48:00,34.2,30.6,29.50,ENE,68,2.7,4.7,87,0.00,,,0.00,WUHU216HW,2013-01-04 06:48:00,
2013-01-03 21:53:00,34.2,30.6,29.51,North,0,0.0,4.7,87,0.00,,,0.00,WUHU216HW,2013-01-04 06:53:00,
2013-01-03 21:58:00,34.2,30.6,29.51,NE,45,2.0,5.1,87,0.00,,,0.00,WUHU216HW,2013-01-04 06:58:00,
2013-01-03 22:03:00,34.0,30.4,29.51,East,90,2.9,5.1,87,0.00,,,0.00,WUHU216HW,2013-01-04 07:03:00,
2013-01-03 22:08:00,34.0,30.4,29.51,NE,45,2.2,4.7,87,0.00,,,0.00,WUHU216HW,2013-01-04 07:08:00,
2013-01-03 22:13:00,33.8,30.2,29.51,North,0,1.6,4.7,87,0.00,,,0.00,WUHU216HW,2013-01-04 07:13:00,
2013-01-03 22:18:00,33.8,30.2,29.52,East,90,0.0,2.9,87,0.00,,,0.00,WUHU216HW,2013-01-04 07:18:00,
2013-01-03 22:23:00,33.7,29.8,29.52,NW,315,1.8,1.8,86,0.00,,,0.00,WUHU216HW,2013-01-04 07:23:00,
2013-01-03 22:28:00,33.1,29.3,29.52,WNW,293,2.2,2.2,86,0.00,,,0.00,WUHU216HW,2013-01-04 07:28:00,
2013-01-03 22:33:00,32.4,28.7,29.52,WNW,293,1.8,2.2,86,0.00,,,0.00,WUHU216HW,2013-01-04 07:33:00,
2013-01-03 22:38:00,32.0,28.4,29.52,NW,315,1.6,2.2,86,0.00,,,0.00,WUHU216HW,2013-01-04 07:38:00,
2013-01-03 22:43:00,31.9,28.4,29.52,NNW,338,0.7,2.9,87,0.00,,,0.00,WUHU216HW,2013-01-04 07:43:00,
2013-01-03 22:48:00,31.7,28.3,29.52,WNW,293,2.0,2.9,87,0.00,,,0.00,WUHU216HW,2013-01-04 07:48:00,
2013-01-03 22:53:00,31.7,28.3,29.52,WNW,293,0.4,2.5,87,0.00,,,0.00,WUHU216HW,2013-01-04 07:53:00,
2013-01-03 22:58:00,31.3,28.3,29.52,NW,315,2.5,2.5,88,0.00,,,0.00,WUHU216HW,2013-01-04 07:58:00,
2013-01-03 23:03:00,31.1,27.7,29.53,South,180,0.7,2.7,87,0.00,,,0.00,WUHU216HW,2013-01-04 08:03:00,
2013-01-03 23:08:00,30.8,27.4,29.53,South,180,0.0,2.7,87,0.00,,,0.00,WUHU216HW,2013-01-04 08:08:00,
2013-01-03 23:13:00,30.4,27.0,29.53,ESE,113,0.0,0.9,87,0.00,,,0.00,WUHU216HW,2013-01-04 08:13:00,
2013-01-03 23:18:00,30.1,26.4,29.53,WSW,248,0.4,1.8,86,0.00,,,0.00,WUHU216HW,2013-01-04 08:18:00,
2013-01-03 23:23:00,29.7,26.3,29.54,West,270,0.0,1.8,87,0.00,,,0.00,WUHU216HW,2013-01-04 08:23:00,
2013-01-03 23:28:00,29.5,26.1,29.54,North,0,0.7,1.1,87,0.00,,,0.00,WUHU216HW,2013-01-04 08:28:00,
2013-01-03 23:33:00,29.2,25.7,29.54,East,90,0.0,1.1,87,0.00,,,0.00,WUHU216HW,2013-01-04 08:33:00,
2013-01-03 23:38:00,29.0,25.6,29.54,ENE,68,0.9,0.9,87,0.00,,,0.00,WUHU216HW,2013-01-04 08:38:00,
2013-01-03 23:43:00,28.8,25.4,29.54,East,90,0.2,0.9,87,0.00,,,0.00,WUHU216HW,2013-01-04 08:43:00,
2013-01-03 23:48:00,28.6,25.2,29.54,ESE,113,0.7,1.1,87,0.00,,,0.00,WUHU216HW,2013-01-04 08:48:00,
2013-01-03 23:53:00,28.4,25.0,29.54,ESE,113,0.7,1.1,87,0.00,,,0.00,WUHU216HW,2013-01-04 08:53:00,
2013-01-03 23:58:00,28.4,25.0,29.54,ESE,113,0.9,2.5,87,0.00,,,0.00,WUHU216HW,2013-01-04 08:58:00,